Time;durP1;ratioP1;P1;durP2;ratioP2;P2;SDS_P1;SDS_P2;PMS_P1;PMS_P2;Temp;Humidity;BMP_temperature;BMP_pressure;BME280_temperature;BME280_humidity;BME280_pressure;Samples;Min_cycle;Max_cycle;Signal;HPM_P1;HPM_P2
2022/10/14 00:01:11;;;;;;;27.60;14.30;;;;;;;;;;1780076;80;25439;-71
2022/10/14 00:03:39;;;;;;;24.95;13.65;;;;;;;;;;1741053;80;25494;-70
2022/10/14 00:06:09;;;;;;;26.25;14.38;;;;;;;;;;1753202;80;25429;-71
2022/10/14 00:08:35;;;;;;;29.12;14.58;;;;;;;;;;1753809;80;27416;-71
2022/10/14 00:11:11;;;;;;;29.52;14.70;;;;;;;;;;1769628;80;33163;-71
2022/10/14 00:13:37;;;;;;;26.97;14.33;;;;;;;;;;1748976;80;25533;-71
2022/10/14 00:16:05;;;;;;;27.15;14.65;;;;;;;;;;1752036;80;25720;-71
2022/10/14 00:18:31;;;;;;;24.63;14.43;;;;;;;;;;1780496;80;25631;-72
2022/10/14 00:20:59;;;;;;;25.52;14.23;;;;;;;;;;1756873;80;27909;-72
2022/10/14 00:23:26;;;;;;;33.23;15.00;;;;;;;;;;1748300;80;25609;-72
2022/10/14 00:25:52;;;;;;;28.10;14.35;;;;;;;;;;1750248;80;25493;-72
2022/10/14 00:28:18;;;;;;;27.55;14.18;;;;;;;;;;1771059;80;25525;-71
2022/10/14 00:30:58;;;;;;;29.23;15.60;;;;;;;;;;1776298;80;25413;-71
2022/10/14 00:33:25;;;;;;;29.48;15.45;;;;;;;;;;1769336;80;27389;-71
2022/10/14 00:35:54;;;;;;;27.98;14.58;;;;;;;;;;1762168;80;25390;-70
2022/10/14 00:38:21;;;;;;;28.92;14.78;;;;;;;;;;1769609;80;25602;-70
2022/10/14 00:40:47;;;;;;;26.35;15.20;;;;;;;;;;1752131;81;27442;-70
2022/10/14 00:43:13;;;;;;;29.00;14.98;;;;;;;;;;1778239;80;25625;-70
2022/10/14 00:45:40;;;;;;;32.05;15.83;;;;;;;;;;1778159;80;27402;-70
2022/10/14 00:48:06;;;;;;;27.95;14.95;;;;;;;;;;1751980;81;25559;-70
2022/10/14 00:50:33;;;;;;;29.07;14.83;;;;;;;;;;1747871;80;25480;-71
2022/10/14 00:52:59;;;;;;;29.35;15.40;;;;;;;;;;1733743;81;25554;-70
2022/10/14 00:55:25;;;;;;;27.62;15.75;;;;;;;;;;1742030;81;25537;-71
2022/10/14 00:57:51;;;;;;;28.27;14.50;;;;;;;;;;1758832;81;27420;-71
2022/10/14 01:00:18;;;;;;;31.17;14.95;;;;;;;;;;1778199;80;32687;-70
2022/10/14 01:02:46;;;;;;;27.17;14.63;;;;;;;;;;1738838;80;25661;-71
2022/10/14 01:05:14;;;;;;;27.98;14.53;;;;;;;;;;1754096;81;25582;-71
2022/10/14 01:08:05;;;;;;;27.62;14.53;;;;;;;;;;1773050;80;25800;-70
2022/10/14 01:10:37;;;;;;;26.35;15.10;;;;;;;;;;1760537;80;27427;-71
2022/10/14 01:13:16;;;;;;;29.37;15.25;;;;;;;;;;1758845;81;25582;-70
2022/10/14 01:16:10;;;;;;;28.42;14.55;;;;;;;;;;1757928;81;25588;-70
2022/10/14 01:18:58;;;;;;;34.30;15.72;;;;;;;;;;1756065;80;25551;-71
2022/10/14 01:21:36;;;;;;;30.90;15.30;;;;;;;;;;1767182;80;25433;-72
2022/10/14 01:24:18;;;;;;;27.60;14.47;;;;;;;;;;1746082;81;27537;-72
2022/10/14 01:27:19;;;;;;;31.33;16.12;;;;;;;;;;1756965;80;25664;-71
2022/10/14 01:30:04;;;;;;;35.45;15.60;;;;;;;;;;1759305;80;25650;-71
2022/10/14 01:32:36;;;;;;;28.02;15.60;;;;;;;;;;1765655;80;25951;-71
2022/10/14 01:35:24;;;;;;;28.35;14.55;;;;;;;;;;1730869;81;25601;-71
2022/10/14 01:37:53;;;;;;;33.63;15.32;;;;;;;;;;1742240;81;27303;-71
2022/10/14 01:40:21;;;;;;;;;;;;;;;;;;1756344;80;26267;-71
2022/10/14 01:42:49;;;;;;;29.92;16.15;;;;;;;;;;1764166;80;25699;-71
2022/10/14 01:45:20;;;;;;;30.02;14.95;;;;;;;;;;1762816;80;25889;-71
2022/10/14 01:47:48;;;;;;;25.57;14.90;;;;;;;;;;1754341;80;25405;-71
2022/10/14 01:50:17;;;;;;;28.40;16.10;;;;;;;;;;1756909;80;27376;-72
2022/10/14 01:52:53;;;;;;;35.00;15.88;;;;;;;;;;1746866;81;34741;-71
2022/10/14 01:55:22;;;;;;;25.35;15.08;;;;;;;;;;1763822;80;25433;-71
2022/10/14 01:57:51;;;;;;;31.00;16.27;;;;;;;;;;1749019;80;25773;-71
2022/10/14 02:00:17;;;;;;;30.65;16.65;;;;;;;;;;1774036;80;25594;-71
2022/10/14 02:02:43;;;;;;;30.70;15.25;;;;;;;;;;1773157;80;27122;-71
2022/10/14 02:05:12;;;;;;;27.65;15.63;;;;;;;;;;1766115;81;32757;-71
2022/10/14 02:07:44;;;;;;;31.77;17.85;;;;;;;;;;1726042;82;25469;-71
2022/10/14 02:10:23;;;;;;;32.03;16.27;;;;;;;;;;1699481;82;25710;-71
2022/10/14 02:12:58;;;;;;;32.40;16.77;;;;;;;;;;1680447;84;25717;-71
2022/10/14 02:15:45;;;;;;;30.27;15.70;;;;;;;;;;1702920;82;27332;-71
2022/10/14 02:18:36;;;;;;;32.80;16.70;;;;;;;;;;1677161;85;25782;-72
2022/10/14 02:21:24;;;;;;;26.97;15.10;;;;;;;;;;1680975;83;25805;-70
2022/10/14 02:23:54;;;;;;;32.60;16.32;;;;;;;;;;1681995;83;25764;-70
2022/10/14 02:26:20;;;;;;;;;;;;;;;;;;1662481;83;25661;-71
2022/10/14 02:28:46;;;;;;;32.90;16.32;;;;;;;;;;1681958;83;27432;-71
2022/10/14 02:31:15;;;;;;;29.00;16.17;;;;;;;;;;1679301;83;25778;-71
2022/10/14 02:33:43;;;;;;;33.05;16.27;;;;;;;;;;1660341;83;25731;-71
2022/10/14 02:36:11;;;;;;;33.42;16.73;;;;;;;;;;1680386;83;25853;-69
2022/10/14 02:38:38;;;;;;;29.05;17.07;;;;;;;;;;1682130;83;25507;-70
2022/10/14 02:41:07;;;;;;;38.20;17.42;;;;;;;;;;1682875;84;27395;-71
2022/10/14 02:43:33;;;;;;;27.48;15.30;;;;;;;;;;1711152;82;25587;-71
2022/10/14 02:46:01;;;;;;;29.70;16.20;;;;;;;;;;1748865;82;25642;-71
2022/10/14 02:48:28;;;;;;;30.02;17.55;;;;;;;;;;1702358;83;26113;-71
2022/10/14 02:50:53;;;;;;;31.93;16.40;;;;;;;;;;1712915;83;25585;-71
2022/10/14 02:53:19;;;;;;;33.08;16.90;;;;;;;;;;1717279;83;27939;-71
2022/10/14 02:55:45;;;;;;;28.50;17.25;;;;;;;;;;1750945;80;32740;-70
2022/10/14 02:58:11;;;;;;;36.60;17.50;;;;;;;;;;1763202;80;30024;-71
2022/10/14 03:00:37;;;;;;;34.03;16.07;;;;;;;;;;1779195;80;35025;-71
2022/10/14 03:03:03;;;;;;;32.33;18.07;;;;;;;;;;1761036;80;25531;-71
2022/10/14 03:05:29;;;;;;;32.83;17.98;;;;;;;;;;1760514;80;27317;-71
2022/10/14 03:07:55;;;;;;;31.52;18.37;;;;;;;;;;1779618;80;33220;-71
2022/10/14 03:10:21;;;;;;;32.03;17.00;;;;;;;;;;1779589;80;29881;-71
2022/10/14 03:12:47;;;;;;;30.52;18.42;;;;;;;;;;1777621;80;35038;-71
2022/10/14 03:15:13;;;;;;;26.80;16.62;;;;;;;;;;1766534;80;25579;-71
2022/10/14 03:17:39;;;;;;;31.85;18.27;;;;;;;;;;1751009;80;27416;-71
2022/10/14 03:20:06;;;;;;;33.53;19.23;;;;;;;;;;1760151;80;25495;-71
2022/10/14 03:22:32;;;;;;;31.12;17.27;;;;;;;;;;1779171;80;25414;-71
2022/10/14 03:24:58;;;;;;;34.35;19.15;;;;;;;;;;1751119;80;35320;-71
2022/10/14 03:27:24;;;;;;;38.53;19.00;;;;;;;;;;1768433;80;32364;-71
2022/10/14 03:29:50;;;;;;;34.40;18.65;;;;;;;;;;1762947;80;27893;-71
2022/10/14 03:32:16;;;;;;;32.08;18.85;;;;;;;;;;1774854;80;32700;-71
2022/10/14 03:34:42;;;;;;;35.35;19.20;;;;;;;;;;1764951;80;29775;-72
2022/10/14 03:37:08;;;;;;;33.55;18.92;;;;;;;;;;1748086;80;34710;-71
2022/10/14 03:39:34;;;;;;;34.48;19.07;;;;;;;;;;1757367;80;25477;-71
2022/10/14 03:42:00;;;;;;;37.15;18.42;;;;;;;;;;1768822;81;27456;-71
2022/10/14 03:44:26;;;;;;;31.62;18.95;;;;;;;;;;1759297;81;32748;-72
2022/10/14 03:46:52;;;;;;;38.33;20.48;;;;;;;;;;1770042;80;30084;-72
2022/10/14 03:49:18;;;;;;;38.08;19.40;;;;;;;;;;1769134;81;35168;-71
2022/10/14 03:51:44;;;;;;;33.18;19.02;;;;;;;;;;1737750;81;32435;-71
2022/10/14 03:54:10;;;;;;;37.08;20.35;;;;;;;;;;1748191;81;27375;-71
2022/10/14 03:56:36;;;;;;;34.70;20.08;;;;;;;;;;1747965;81;33023;-71
2022/10/14 03:59:03;;;;;;;34.30;19.87;;;;;;;;;;1750090;81;25541;-70
2022/10/14 04:01:29;;;;;;;35.90;19.70;;;;;;;;;;1749717;80;34672;-70
2022/10/14 04:03:55;;;;;;;36.38;20.05;;;;;;;;;;1756900;81;32379;-70
2022/10/14 04:06:21;;;;;;;42.30;20.57;;;;;;;;;;1759073;81;27495;-70
2022/10/14 04:08:47;;;;;;;35.13;19.95;;;;;;;;;;1749372;81;33044;-70
2022/10/14 04:11:12;;;;;;;40.05;20.88;;;;;;;;;;1762599;80;25418;-70
2022/10/14 04:13:38;;;;;;;33.42;20.48;;;;;;;;;;1759404;80;35098;-70
2022/10/14 04:16:07;;;;;;;36.25;20.68;;;;;;;;;;1748131;81;32367;-70
2022/10/14 04:18:34;;;;;;;36.73;19.60;;;;;;;;;;1760764;80;27384;-70
2022/10/14 04:21:03;;;;;;;42.27;20.55;;;;;;;;;;1762457;81;25626;-70
2022/10/14 04:23:29;;;;;;;40.52;20.72;;;;;;;;;;1744390;80;25596;-70
2022/10/14 04:25:55;;;;;;;34.08;20.57;;;;;;;;;;1769936;81;26192;-70
2022/10/14 04:28:21;;;;;;;38.78;21.60;;;;;;;;;;1759150;80;32415;-71
2022/10/14 04:30:47;;;;;;;38.00;20.37;;;;;;;;;;1748698;81;27983;-70
2022/10/14 04:33:13;;;;;;;38.13;20.00;;;;;;;;;;1767527;80;33555;-70
2022/10/14 04:35:39;;;;;;;36.90;20.68;;;;;;;;;;1744813;81;25469;-70
2022/10/14 04:38:05;;;;;;;38.33;19.40;;;;;;;;;;1759365;80;34882;-70
2022/10/14 04:40:31;;;;;;;39.65;21.37;;;;;;;;;;1764900;81;32768;-70
2022/10/14 04:42:58;;;;;;;34.83;21.87;;;;;;;;;;1769981;81;27391;-71
2022/10/14 04:45:24;;;;;;;34.08;21.12;;;;;;;;;;1757710;80;25624;-71
2022/10/14 04:47:51;;;;;;;34.75;21.33;;;;;;;;;;1734935;81;25630;-71
2022/10/14 04:50:18;;;;;;;36.75;21.55;;;;;;;;;;1740310;81;25679;-70
2022/10/14 04:52:44;;;;;;;41.75;23.05;;;;;;;;;;1740937;81;25620;-71
2022/10/14 04:55:11;;;;;;;44.05;22.80;;;;;;;;;;1758652;81;27283;-70
2022/10/14 04:57:39;;;;;;;41.02;20.57;;;;;;;;;;1748433;80;25393;-71
2022/10/14 05:00:07;;;;;;;33.83;21.65;;;;;;;;;;1769987;80;25656;-71
2022/10/14 05:02:33;;;;;;;40.83;23.15;;;;;;;;;;1743659;81;26362;-70
2022/10/14 05:04:58;;;;;;;41.45;21.45;;;;;;;;;;1753486;80;32783;-71
2022/10/14 05:07:24;;;;;;;39.48;22.45;;;;;;;;;;1768107;81;27997;-70
2022/10/14 05:09:50;;;;;;;33.20;22.40;;;;;;;;;;1753328;81;33050;-70
2022/10/14 05:12:16;;;;;;;43.48;21.97;;;;;;;;;;1747491;80;29639;-70
2022/10/14 05:14:42;;;;;;;40.75;22.55;;;;;;;;;;1748667;81;25707;-71
2022/10/14 05:17:08;;;;;;;38.40;21.90;;;;;;;;;;1770103;80;25395;-70
2022/10/14 05:19:34;;;;;;;33.88;22.48;;;;;;;;;;1752579;81;27333;-71
2022/10/14 05:22:00;;;;;;;40.73;22.77;;;;;;;;;;1755811;80;33089;-70
2022/10/14 05:24:26;;;;;;;39.03;23.02;;;;;;;;;;1758005;81;30105;-70
2022/10/14 05:26:52;;;;;;;36.63;21.45;;;;;;;;;;1759039;81;34790;-70
2022/10/14 05:29:18;;;;;;;37.08;22.35;;;;;;;;;;1756116;81;25709;-70
2022/10/14 05:31:44;;;;;;;43.87;22.87;;;;;;;;;;1766455;81;27537;-70
2022/10/14 05:34:10;;;;;;;40.38;22.48;;;;;;;;;;1767130;80;33382;-70
2022/10/14 05:36:36;;;;;;;39.48;22.62;;;;;;;;;;1735037;80;25386;-70
2022/10/14 05:39:08;;;;;;;39.88;23.30;;;;;;;;;;1746923;81;25728;-70
2022/10/14 05:41:34;;;;;;;42.90;23.83;;;;;;;;;;1747522;81;25558;-70
2022/10/14 05:43:59;;;;;;;38.10;23.15;;;;;;;;;;1738941;80;27989;-70
2022/10/14 05:46:25;;;;;;;39.15;22.25;;;;;;;;;;1764733;81;33136;-72
2022/10/14 05:48:51;;;;;;;44.80;24.20;;;;;;;;;;1761461;80;29778;-71
2022/10/14 05:51:20;;;;;;;38.88;24.25;;;;;;;;;;1749391;81;35318;-72
2022/10/14 05:53:46;;;;;;;42.60;24.05;;;;;;;;;;1753368;80;25412;-72
2022/10/14 05:56:12;;;;;;;38.63;23.07;;;;;;;;;;1754565;80;27973;-70
2022/10/14 05:58:38;;;;;;;39.30;23.87;;;;;;;;;;1738131;81;33366;-71
2022/10/14 06:01:07;;;;;;;42.45;24.30;;;;;;;;;;1758136;80;25776;-72
2022/10/14 06:03:35;;;;;;;44.15;24.32;;;;;;;;;;1739702;80;25814;-74
2022/10/14 06:06:01;;;;;;;44.40;25.80;;;;;;;;;;1762219;81;25686;-70
2022/10/14 06:08:27;;;;;;;47.43;25.02;;;;;;;;;;1761447;80;27500;-71
2022/10/14 06:10:53;;;;;;;37.65;24.77;;;;;;;;;;1732214;81;25672;-71
2022/10/14 06:13:20;;;;;;;44.48;23.90;;;;;;;;;;1752606;81;25678;-73
2022/10/14 06:15:46;;;;;;;38.73;24.25;;;;;;;;;;1761066;81;26951;-71
2022/10/14 06:18:12;;;;;;;43.68;27.90;;;;;;;;;;1761020;81;32449;-73
2022/10/14 06:20:38;;;;;;;49.30;28.05;;;;;;;;;;1745522;80;27911;-70
2022/10/14 06:23:04;;;;;;;43.00;26.15;;;;;;;;;;1766737;80;25480;-72
2022/10/14 06:25:31;;;;;;;46.30;28.80;;;;;;;;;;1738520;81;25407;-72
2022/10/14 06:28:04;;;;;;;44.77;26.62;;;;;;;;;;1754584;81;25661;-72
2022/10/14 06:30:31;;;;;;;43.75;25.20;;;;;;;;;;1741876;81;25522;-72
2022/10/14 06:32:57;;;;;;;39.63;25.45;;;;;;;;;;1763228;81;27325;-70
2022/10/14 06:35:23;;;;;;;41.40;26.55;;;;;;;;;;1764856;81;25516;-72
2022/10/14 06:37:49;;;;;;;48.90;27.95;;;;;;;;;;1771045;80;30029;-69
2022/10/14 06:40:15;;;;;;;48.25;28.75;;;;;;;;;;1748204;81;25649;-71
2022/10/14 06:42:41;;;;;;;46.37;27.50;;;;;;;;;;1751317;81;32288;-71
2022/10/14 06:45:07;;;;;;;48.90;28.25;;;;;;;;;;1741644;81;27414;-72
2022/10/14 06:47:33;;;;;;;49.13;27.37;;;;;;;;;;1734667;81;25411;-72
2022/10/14 06:49:59;;;;;;;49.98;27.90;;;;;;;;;;1743826;81;29705;-72
2022/10/14 06:52:25;;;;;;;50.80;26.52;;;;;;;;;;1747594;81;34812;-72
2022/10/14 06:54:51;;;;;;;49.13;26.80;;;;;;;;;;1755610;81;32399;-72
2022/10/14 06:57:17;;;;;;;45.03;28.25;;;;;;;;;;1745447;82;27457;-72
2022/10/14 06:59:43;;;;;;;47.35;26.10;;;;;;;;;;1734069;81;25675;-69
2022/10/14 07:02:09;;;;;;;48.33;27.02;;;;;;;;;;1734582;81;25418;-71
2022/10/14 07:04:35;;;;;;;48.05;26.73;;;;;;;;;;1734517;80;27712;-71
2022/10/14 07:07:02;;;;;;;45.52;26.68;;;;;;;;;;1735964;80;32419;-70
2022/10/14 07:09:28;;;;;;;42.70;25.75;;;;;;;;;;1740414;80;27283;-70
2022/10/14 07:11:54;;;;;;;41.92;26.15;;;;;;;;;;1734511;82;25888;-71
2022/10/14 07:14:21;;;;;;;46.10;27.67;;;;;;;;;;1731781;81;25628;-71
2022/10/14 07:16:47;;;;;;;37.00;24.65;;;;;;;;;;1754359;81;25725;-71
2022/10/14 07:19:13;;;;;;;47.23;26.85;;;;;;;;;;1746279;81;32324;-71
2022/10/14 07:21:41;;;;;;;45.83;27.17;;;;;;;;;;1744772;81;27371;-73
2022/10/14 07:24:09;;;;;;;43.07;26.97;;;;;;;;;;1734779;81;25738;-71
2022/10/14 07:26:35;;;;;;;42.70;25.90;;;;;;;;;;1734591;82;25721;-71
2022/10/14 07:29:03;;;;;;;41.75;25.90;;;;;;;;;;1738462;82;34901;-71
2022/10/14 07:31:29;;;;;;;37.53;24.30;;;;;;;;;;1741468;81;25688;-71
2022/10/14 07:33:56;;;;;;;45.12;26.33;;;;;;;;;;1755005;81;27442;-71
2022/10/14 07:36:22;;;;;;;40.03;24.60;;;;;;;;;;1740642;81;25676;-71
2022/10/14 07:38:48;;;;;;;41.98;26.90;;;;;;;;;;1751208;81;25510;-71
2022/10/14 07:41:17;;;;;;;36.33;24.12;;;;;;;;;;1768564;80;25660;-72
2022/10/14 07:43:46;;;;;;;45.17;26.17;;;;;;;;;;1764638;81;25641;-71
2022/10/14 07:46:13;;;;;;;44.38;26.70;;;;;;;;;;1746312;81;27356;-71
2022/10/14 07:48:39;;;;;;;41.88;24.65;;;;;;;;;;1734174;81;25462;-71
2022/10/14 07:51:07;;;;;;;45.23;26.00;;;;;;;;;;1742532;82;25705;-71
2022/10/14 07:53:34;;;;;;;40.20;24.18;;;;;;;;;;1739187;80;25779;-70
2022/10/14 07:56:00;;;;;;;44.23;24.20;;;;;;;;;;1734264;81;25620;-72
2022/10/14 07:58:29;;;;;;;42.93;24.72;;;;;;;;;;1740040;80;27413;-71
2022/10/14 08:00:57;;;;;;;43.08;23.67;;;;;;;;;;1730271;82;25437;-71
2022/10/14 08:03:24;;;;;;;40.05;25.05;;;;;;;;;;1731022;81;25656;-71
2022/10/14 08:05:50;;;;;;;39.55;24.20;;;;;;;;;;1729675;82;25764;-71
2022/10/14 08:08:17;;;;;;;38.92;23.80;;;;;;;;;;1708954;83;25494;-71
2022/10/14 08:10:44;;;;;;;36.05;23.77;;;;;;;;;;1734057;81;27294;-71
2022/10/14 08:13:10;;;;;;;36.63;23.70;;;;;;;;;;1742596;81;25630;-69
2022/10/14 08:15:39;;;;;;;37.33;23.85;;;;;;;;;;1735048;80;29820;-70
2022/10/14 08:18:06;;;;;;;;;;;;;;;;;;1696229;83;25670;-69
2022/10/14 08:20:34;;;;;;;43.17;24.07;;;;;;;;;;1661208;85;25463;-70
2022/10/14 08:23:00;;;;;;;35.83;23.57;;;;;;;;;;1655781;86;27199;-69
2022/10/14 08:25:27;;;;;;;38.98;25.08;;;;;;;;;;1677520;84;25758;-71
2022/10/14 08:27:56;;;;;;;38.60;24.90;;;;;;;;;;1676978;84;25778;-69
2022/10/14 08:30:21;;;;;;;36.88;25.02;;;;;;;;;;1673831;85;26225;-68
2022/10/14 08:32:47;;;;;;;35.58;22.80;;;;;;;;;;1672770;85;25725;-68
2022/10/14 08:35:13;;;;;;;34.50;21.95;;;;;;;;;;1659512;84;27438;-68
2022/10/14 08:37:39;;;;;;;36.15;21.30;;;;;;;;;;1697799;84;25484;-67
2022/10/14 08:40:07;;;;;;;29.67;20.50;;;;;;;;;;1717355;82;29762;-67
2022/10/14 08:42:42;;;;;;;32.50;19.85;;;;;;;;;;1684245;84;25761;-69
2022/10/14 08:45:16;;;;;;;31.37;20.32;;;;;;;;;;1703412;83;25409;-66
2022/10/14 08:47:45;;;;;;;28.25;18.30;;;;;;;;;;1729589;81;27448;-67
2022/10/14 08:50:33;;;;;;;31.15;18.77;;;;;;;;;;1751287;81;25572;-67
2022/10/14 08:53:02;;;;;;;30.40;18.42;;;;;;;;;;1747956;81;25695;-66
2022/10/14 08:55:38;;;;;;;28.83;17.42;;;;;;;;;;1740349;81;25739;-68
2022/10/14 08:58:23;;;;;;;27.25;18.12;;;;;;;;;;1762606;80;25680;-69
2022/10/14 09:00:51;;;;;;;28.80;16.70;;;;;;;;;;1707239;82;27458;-68
2022/10/14 09:03:25;;;;;;;28.35;16.30;;;;;;;;;;1719650;83;25630;-69
2022/10/14 09:06:03;;;;;;;26.97;15.55;;;;;;;;;;1693888;84;25672;-69
2022/10/14 09:08:33;;;;;;;23.73;15.00;;;;;;;;;;1705220;82;25762;-68
2022/10/14 09:10:59;;;;;;;27.85;15.78;;;;;;;;;;1701426;82;25382;-73
2022/10/14 09:13:31;;;;;;;22.93;14.33;;;;;;;;;;1702706;83;27407;-68
2022/10/14 09:16:01;;;;;;;21.00;13.25;;;;;;;;;;1679443;84;25680;-67
2022/10/14 09:18:37;;;;;;;20.08;12.78;;;;;;;;;;1685070;82;25396;-69
2022/10/14 09:21:22;;;;;;;20.25;12.03;;;;;;;;;;1682517;84;27835;-68
2022/10/14 09:23:51;;;;;;;15.90;10.90;;;;;;;;;;1683676;84;25691;-69
2022/10/14 09:26:18;;;;;;;21.27;12.37;;;;;;;;;;1723639;82;27514;-69
2022/10/14 09:28:49;;;;;;;20.48;12.15;;;;;;;;;;1708653;82;25708;-72
2022/10/14 09:31:14;;;;;;;20.15;11.80;;;;;;;;;;1661994;85;25582;-72
2022/10/14 09:33:42;;;;;;;15.90;10.95;;;;;;;;;;1661033;86;25767;-72
2022/10/14 09:36:14;;;;;;;18.65;12.07;;;;;;;;;;1643529;86;25650;-72
2022/10/14 09:38:40;;;;;;;20.05;11.00;;;;;;;;;;1653577;85;27469;-71
2022/10/14 09:41:09;;;;;;;19.60;11.20;;;;;;;;;;1673631;85;25691;-73
2022/10/14 09:43:35;;;;;;;18.75;10.78;;;;;;;;;;1681386;85;25748;-72
2022/10/14 09:46:09;;;;;;;15.23;10.50;;;;;;;;;;1649556;85;25757;-73
2022/10/14 09:48:39;;;;;;;17.15;10.65;;;;;;;;;;1680619;85;25792;-72
2022/10/14 09:51:12;;;;;;;19.52;10.03;;;;;;;;;;1671349;85;27331;-71
2022/10/14 09:53:44;;;;;;;15.48;9.95;;;;;;;;;;1660002;84;25639;-71
2022/10/14 09:56:10;;;;;;;20.72;9.48;;;;;;;;;;1667118;84;25740;-73
2022/10/14 09:58:54;;;;;;;20.60;10.23;;;;;;;;;;1657502;85;25693;-72
2022/10/14 10:01:24;;;;;;;16.50;9.78;;;;;;;;;;1662473;85;25706;-73
2022/10/14 10:03:52;;;;;;;15.32;10.20;;;;;;;;;;1667658;85;27331;-71
2022/10/14 10:06:22;;;;;;;17.00;9.90;;;;;;;;;;1673343;84;25802;-71
2022/10/14 10:08:57;;;;;;;15.25;10.60;;;;;;;;;;1667406;85;25670;-71
2022/10/14 10:11:38;;;;;;;15.88;10.75;;;;;;;;;;1673494;84;27123;-72
2022/10/14 10:14:23;;;;;;;17.55;11.65;;;;;;;;;;1638514;85;25848;-71
2022/10/14 10:16:52;;;;;;;17.30;10.88;;;;;;;;;;1680892;85;27446;-71
2022/10/14 10:19:36;;;;;;;17.57;10.68;;;;;;;;;;1678614;85;25718;-71
2022/10/14 10:22:25;;;;;;;19.73;11.40;;;;;;;;;;1684156;84;25643;-70
2022/10/14 10:25:04;;;;;;;17.15;11.68;;;;;;;;;;1675745;84;25804;-70
2022/10/14 10:27:39;;;;;;;17.52;11.03;;;;;;;;;;1700303;80;25640;-70
2022/10/14 10:30:31;;;;;;;16.75;10.45;;;;;;;;;;1759687;80;27317;-71
2022/10/14 10:33:16;;;;;;;16.15;9.93;;;;;;;;;;1750248;81;25589;-67
2022/10/14 10:35:55;;;;;;;18.32;10.03;;;;;;;;;;1742262;81;25669;-67
2022/10/14 10:38:24;;;;;;;18.23;10.48;;;;;;;;;;1741461;81;34944;-66
2022/10/14 10:41:03;;;;;;;16.20;10.08;;;;;;;;;;1764555;80;25827;-66
2022/10/14 10:43:35;;;;;;;16.10;9.80;;;;;;;;;;1693952;82;27557;-67
2022/10/14 10:46:05;;;;;;;21.87;10.75;;;;;;;;;;1718942;82;25798;-70
2022/10/14 10:48:35;;;;;;;18.45;10.38;;;;;;;;;;1694305;82;25826;-68
2022/10/14 10:51:31;;;;;;;18.32;9.93;;;;;;;;;;1669845;85;25882;-66
2022/10/14 10:54:13;;;;;;;18.48;10.23;;;;;;;;;;1678644;85;25711;-69
2022/10/14 10:56:48;;;;;;;17.67;10.38;;;;;;;;;;1678127;85;27618;-68
2022/10/14 10:59:50;;;;;;;18.37;9.58;;;;;;;;;;1691478;82;25976;-68
2022/10/14 11:02:44;;;;;;;15.98;9.25;;;;;;;;;;1700699;82;26603;-66
2022/10/14 11:05:14;;;;;;;15.75;9.50;;;;;;;;;;1676448;85;27757;-66
2022/10/14 11:13:22;;;;;;;17.73;10.15;;;;;;;;;;1634698;87;26185;-71
2022/10/14 11:16:03;;;;;;;12.98;8.70;;;;;;;;;;1618282;87;25798;-71
2022/10/14 11:18:36;;;;;;;14.20;9.05;;;;;;;;;;1636175;87;25771;-68
2022/10/14 11:21:15;;;;;;;23.67;9.58;;;;;;;;;;1644193;85;25793;-73
2022/10/14 11:23:58;;;;;;;17.77;10.32;;;;;;;;;;1683534;83;28063;-72
2022/10/14 11:26:40;;;;;;;17.15;9.58;;;;;;;;;;1586271;89;25609;-70
2022/10/14 11:29:21;;;;;;;14.78;9.78;;;;;;;;;;1582235;89;26618;-66
2022/10/14 11:32:07;;;;;;;18.10;10.28;;;;;;;;;;1602199;89;25984;-71
2022/10/14 11:35:04;;;;;;;13.58;9.18;;;;;;;;;;1610435;89;25859;-68
2022/10/14 11:37:43;;;;;;;20.05;10.32;;;;;;;;;;1604906;89;27431;-68
2022/10/14 11:40:18;;;;;;;15.23;9.65;;;;;;;;;;1585168;88;25837;-77
2022/10/14 11:43:02;;;;;;;13.20;9.65;;;;;;;;;;1585699;89;25772;-78
2022/10/14 11:45:58;;;;;;;15.48;9.25;;;;;;;;;;1584969;89;25931;-71
2022/10/14 11:48:40;;;;;;;19.20;9.38;;;;;;;;;;1611432;86;25719;-72
2022/10/14 11:51:15;;;;;;;14.07;9.78;;;;;;;;;;1634690;87;27434;-73
2022/10/14 11:53:54;;;;;;;17.50;8.75;;;;;;;;;;1635885;87;25796;-73
2022/10/14 11:56:40;;;;;;;18.48;9.70;;;;;;;;;;1654070;85;25842;-73
2022/10/14 11:59:18;;;;;;;21.70;9.23;;;;;;;;;;1647943;86;25843;-76
2022/10/14 12:01:45;;;;;;;17.65;9.35;;;;;;;;;;1643481;87;25811;-75
2022/10/14 12:04:15;;;;;;;14.38;9.33;;;;;;;;;;1733259;80;27429;-72
2022/10/14 12:06:50;;;;;;;15.00;9.28;;;;;;;;;;1742895;80;25911;-72
2022/10/14 12:09:30;;;;;;;16.93;10.28;;;;;;;;;;1751424;80;25574;-72
2022/10/14 12:12:01;;;;;;;15.70;9.85;;;;;;;;;;1733298;80;25734;-73
2022/10/14 12:14:36;;;;;;;17.40;9.75;;;;;;;;;;1769378;81;25665;-73
2022/10/14 12:17:08;;;;;;;19.20;10.98;;;;;;;;;;1756765;81;27483;-74
2022/10/14 12:19:35;;;;;;;16.57;11.05;;;;;;;;;;1745766;81;25885;-75
2022/10/14 12:22:17;;;;;;;18.07;12.73;;;;;;;;;;1769578;81;25943;-73
2022/10/14 12:24:49;;;;;;;14.93;12.05;;;;;;;;;;1739123;80;25713;-74
2022/10/14 12:27:15;;;;;;;17.48;12.73;;;;;;;;;;1737079;81;26347;-74
2022/10/14 12:29:44;;;;;;;18.65;10.45;;;;;;;;;;1758958;80;27913;-75
2022/10/14 12:32:20;;;;;;;17.00;11.88;;;;;;;;;;1740409;81;26029;-73
2022/10/14 12:34:54;;;;;;;17.35;10.32;;;;;;;;;;1760451;80;25799;-73
2022/10/14 12:37:30;;;;;;;17.60;12.68;;;;;;;;;;1769385;81;26636;-74
2022/10/14 12:40:06;;;;;;;16.82;10.68;;;;;;;;;;1750776;80;25571;-74
2022/10/14 12:42:36;;;;;;;19.00;13.32;;;;;;;;;;1759549;80;27389;-75
2022/10/14 12:45:15;;;;;;;20.10;13.78;;;;;;;;;;1737671;80;25713;-73
2022/10/14 12:47:42;;;;;;;20.65;12.28;;;;;;;;;;1699893;83;26267;-72
2022/10/14 12:50:18;;;;;;;21.95;11.68;;;;;;;;;;1712255;83;26618;-72
2022/10/14 12:52:46;;;;;;;18.10;11.22;;;;;;;;;;1721798;82;25801;-72
2022/10/14 12:55:16;;;;;;;18.35;11.10;;;;;;;;;;1724104;82;27482;-73
2022/10/14 12:57:42;;;;;;;19.25;11.75;;;;;;;;;;1724384;82;25864;-73
2022/10/14 13:00:15;;;;;;;19.42;11.68;;;;;;;;;;1719915;82;25744;-72
2022/10/14 13:02:45;;;;;;;21.52;11.70;;;;;;;;;;1725620;82;25783;-73
2022/10/14 13:05:37;;;;;;;20.85;11.95;;;;;;;;;;1723778;82;25792;-73
2022/10/14 13:08:22;;;;;;;17.55;11.45;;;;;;;;;;1730084;82;27999;-73
2022/10/14 13:11:01;;;;;;;19.15;13.20;;;;;;;;;;1724160;82;25800;-74
2022/10/14 13:13:51;;;;;;;23.22;14.38;;;;;;;;;;1721565;82;25592;-74
2022/10/14 13:16:29;;;;;;;20.65;11.73;;;;;;;;;;1691211;83;31588;-74
2022/10/14 13:18:59;;;;;;;16.87;13.57;;;;;;;;;;1720925;82;25662;-73
2022/10/14 13:21:32;;;;;;;22.80;14.75;;;;;;;;;;1720933;82;27349;-72
2022/10/14 13:24:00;;;;;;;21.05;14.00;;;;;;;;;;1734136;81;25506;-74
2022/10/14 13:26:38;;;;;;;20.27;12.63;;;;;;;;;;1764508;81;25678;-74
2022/10/14 13:29:17;;;;;;;19.17;11.53;;;;;;;;;;1754594;81;25699;-72
2022/10/14 13:31:52;;;;;;;20.08;15.72;;;;;;;;;;1754328;81;25623;-73
2022/10/14 13:34:34;;;;;;;20.77;12.68;;;;;;;;;;1756530;80;27321;-73
2022/10/14 13:37:04;;;;;;;20.12;12.73;;;;;;;;;;1747647;81;25481;-73
2022/10/14 13:39:33;;;;;;;24.90;13.83;;;;;;;;;;1758460;81;25720;-72
2022/10/14 13:42:00;;;;;;;22.35;12.05;;;;;;;;;;1770921;80;25654;-74
2022/10/14 13:44:27;;;;;;;23.57;12.63;;;;;;;;;;1755771;80;25606;-74
2022/10/14 13:46:53;;;;;;;18.60;12.50;;;;;;;;;;1765954;80;27315;-74
2022/10/14 13:49:25;;;;;;;16.37;12.30;;;;;;;;;;1768827;80;25827;-74
2022/10/14 13:52:03;;;;;;;21.73;11.70;;;;;;;;;;1747114;80;25749;-73
2022/10/14 13:54:29;;;;;;;19.87;13.00;;;;;;;;;;1766892;80;25757;-74
2022/10/14 13:57:10;;;;;;;28.55;14.70;;;;;;;;;;1764808;80;25768;-74
2022/10/14 13:59:39;;;;;;;18.67;12.47;;;;;;;;;;1778123;80;27273;-75
2022/10/14 14:02:14;;;;;;;27.42;14.85;;;;;;;;;;1777676;80;25784;-76
2022/10/14 14:04:39;;;;;;;21.62;13.75;;;;;;;;;;1757518;80;26137;-76
2022/10/14 14:07:06;;;;;;;27.02;15.30;;;;;;;;;;1760635;80;26281;-75
2022/10/14 14:09:33;;;;;;;20.62;15.28;;;;;;;;;;1770379;80;25867;-73
2022/10/14 14:12:02;;;;;;;29.65;23.80;;;;;;;;;;1763997;80;27979;-76
2022/10/14 14:14:36;;;;;;;28.17;19.07;;;;;;;;;;1761397;80;27604;-72
2022/10/14 14:17:04;;;;;;;19.75;14.03;;;;;;;;;;1757674;80;25768;-73
2022/10/14 14:19:35;;;;;;;19.57;14.87;;;;;;;;;;1768176;80;26244;-72
2022/10/14 14:22:17;;;;;;;22.93;15.45;;;;;;;;;;1764979;80;25757;-72
2022/10/14 14:24:43;;;;;;;24.50;15.43;;;;;;;;;;1760593;80;27372;-71
2022/10/14 14:27:12;;;;;;;29.35;16.50;;;;;;;;;;1767244;80;25668;-71
2022/10/14 14:29:42;;;;;;;21.82;14.05;;;;;;;;;;1758299;80;34847;-74
2022/10/14 14:32:21;;;;;;;21.97;16.02;;;;;;;;;;1752367;80;26254;-75
2022/10/14 14:34:49;;;;;;;22.58;16.80;;;;;;;;;;1690235;84;26395;-76
2022/10/14 14:37:27;;;;;;;29.48;16.25;;;;;;;;;;1694754;83;27922;-74
2022/10/14 14:40:05;;;;;;;25.85;17.80;;;;;;;;;;1696478;83;25713;-75
2022/10/14 14:42:39;;;;;;;27.48;17.60;;;;;;;;;;1649218;84;25642;-73
2022/10/14 14:45:20;;;;;;;25.85;18.50;;;;;;;;;;1635154;85;25813;-71